sensor_id;sensor_type;location;lat;lon;timestamp;P1;durP1;ratioP1;P2;durP2;ratioP2
11988;SDS011;6054;50.966;7.094;2022-09-25T00:01:40;20.75;;;16.40;;
11988;SDS011;6054;50.966;7.094;2022-09-25T00:04:08;18.05;;;16.00;;
11988;SDS011;6054;50.966;7.094;2022-09-25T00:06:36;18.48;;;16.35;;
11988;SDS011;6054;50.966;7.094;2022-09-25T00:09:05;21.52;;;16.52;;
11988;SDS011;6054;50.966;7.094;2022-09-25T00:11:33;20.73;;;17.30;;
11988;SDS011;6054;50.966;7.094;2022-09-25T00:14:01;18.70;;;16.70;;
11988;SDS011;6054;50.966;7.094;2022-09-25T00:16:28;19.10;;;17.00;;
11988;SDS011;6054;50.966;7.094;2022-09-25T00:18:57;19.17;;;17.05;;
11988;SDS011;6054;50.966;7.094;2022-09-25T00:21:43;22.92;;;18.95;;
11988;SDS011;6054;50.966;7.094;2022-09-25T00:24:13;19.75;;;17.15;;
11988;SDS011;6054;50.966;7.094;2022-09-25T00:26:40;20.92;;;16.80;;
11988;SDS011;6054;50.966;7.094;2022-09-25T00:29:08;22.65;;;18.15;;
11988;SDS011;6054;50.966;7.094;2022-09-25T00:31:40;20.65;;;17.40;;
11988;SDS011;6054;50.966;7.094;2022-09-25T00:34:07;20.10;;;17.48;;
11988;SDS011;6054;50.966;7.094;2022-09-25T00:36:35;19.60;;;17.50;;
11988;SDS011;6054;50.966;7.094;2022-09-25T00:39:03;22.00;;;16.27;;
11988;SDS011;6054;50.966;7.094;2022-09-25T00:41:30;21.80;;;17.52;;
11988;SDS011;6054;50.966;7.094;2022-09-25T00:43:58;19.30;;;17.08;;
11988;SDS011;6054;50.966;7.094;2022-09-25T00:46:26;20.52;;;17.23;;
11988;SDS011;6054;50.966;7.094;2022-09-25T00:48:57;18.75;;;16.73;;
11988;SDS011;6054;50.966;7.094;2022-09-25T00:51:27;18.58;;;16.58;;
11988;SDS011;6054;50.966;7.094;2022-09-25T00:53:59;20.50;;;16.88;;
11988;SDS011;6054;50.966;7.094;2022-09-25T00:56:30;20.05;;;17.02;;
11988;SDS011;6054;50.966;7.094;2022-09-25T00:59:02;19.00;;;16.95;;
11988;SDS011;6054;50.966;7.094;2022-09-25T01:01:30;22.85;;;18.15;;
11988;SDS011;6054;50.966;7.094;2022-09-25T01:03:58;21.23;;;18.50;;
11988;SDS011;6054;50.966;7.094;2022-09-25T01:06:25;22.13;;;18.08;;
11988;SDS011;6054;50.966;7.094;2022-09-25T01:08:53;22.17;;;18.05;;
11988;SDS011;6054;50.966;7.094;2022-09-25T01:11:20;22.27;;;17.83;;
11988;SDS011;6054;50.966;7.094;2022-09-25T01:13:48;21.90;;;17.35;;
11988;SDS011;6054;50.966;7.094;2022-09-25T01:16:19;22.42;;;17.05;;
11988;SDS011;6054;50.966;7.094;2022-09-25T01:18:55;21.95;;;17.23;;
11988;SDS011;6054;50.966;7.094;2022-09-25T01:21:32;19.98;;;17.23;;
11988;SDS011;6054;50.966;7.094;2022-09-25T01:24:17;21.90;;;17.67;;
11988;SDS011;6054;50.966;7.094;2022-09-25T01:27:05;21.85;;;17.85;;
11988;SDS011;6054;50.966;7.094;2022-09-25T01:30:05;21.00;;;17.65;;
11988;SDS011;6054;50.966;7.094;2022-09-25T01:32:37;21.70;;;17.35;;
11988;SDS011;6054;50.966;7.094;2022-09-25T01:35:12;23.17;;;17.10;;
11988;SDS011;6054;50.966;7.094;2022-09-25T01:37:43;18.15;;;16.25;;
11988;SDS011;6054;50.966;7.094;2022-09-25T01:40:16;20.60;;;16.98;;
11988;SDS011;6054;50.966;7.094;2022-09-25T01:42:50;20.98;;;16.40;;
11988;SDS011;6054;50.966;7.094;2022-09-25T01:45:22;21.00;;;16.80;;
11988;SDS011;6054;50.966;7.094;2022-09-25T01:47:53;19.38;;;16.58;;
11988;SDS011;6054;50.966;7.094;2022-09-25T01:50:26;21.95;;;16.95;;
11988;SDS011;6054;50.966;7.094;2022-09-25T01:52:59;19.75;;;15.75;;
11988;SDS011;6054;50.966;7.094;2022-09-25T01:55:29;19.00;;;16.15;;
11988;SDS011;6054;50.966;7.094;2022-09-25T01:58:01;19.23;;;16.25;;
11988;SDS011;6054;50.966;7.094;2022-09-25T02:00:35;19.15;;;16.45;;
11988;SDS011;6054;50.966;7.094;2022-09-25T02:03:06;19.00;;;15.98;;
11988;SDS011;6054;50.966;7.094;2022-09-25T02:05:39;18.05;;;16.15;;
11988;SDS011;6054;50.966;7.094;2022-09-25T02:08:12;20.25;;;16.65;;
11988;SDS011;6054;50.966;7.094;2022-09-25T02:10:44;19.35;;;14.73;;
11988;SDS011;6054;50.966;7.094;2022-09-25T02:13:15;19.80;;;16.73;;
11988;SDS011;6054;50.966;7.094;2022-09-25T02:15:47;18.73;;;15.57;;
11988;SDS011;6054;50.966;7.094;2022-09-25T02:18:18;22.35;;;16.63;;
11988;SDS011;6054;50.966;7.094;2022-09-25T02:21:07;18.67;;;16.00;;
11988;SDS011;6054;50.966;7.094;2022-09-25T02:23:42;17.48;;;15.45;;
11988;SDS011;6054;50.966;7.094;2022-09-25T02:26:15;18.02;;;16.00;;
11988;SDS011;6054;50.966;7.094;2022-09-25T02:28:47;20.95;;;16.95;;
11988;SDS011;6054;50.966;7.094;2022-09-25T02:31:19;19.20;;;16.95;;
11988;SDS011;6054;50.966;7.094;2022-09-25T02:33:48;19.70;;;17.27;;
11988;SDS011;6054;50.966;7.094;2022-09-25T02:36:15;19.10;;;17.10;;
11988;SDS011;6054;50.966;7.094;2022-09-25T02:38:44;19.95;;;17.25;;
11988;SDS011;6054;50.966;7.094;2022-09-25T02:41:16;19.63;;;16.85;;
11988;SDS011;6054;50.966;7.094;2022-09-25T02:43:52;22.17;;;17.50;;
11988;SDS011;6054;50.966;7.094;2022-09-25T02:46:29;21.65;;;18.35;;
11988;SDS011;6054;50.966;7.094;2022-09-25T02:49:04;24.10;;;18.65;;
11988;SDS011;6054;50.966;7.094;2022-09-25T02:51:43;22.38;;;18.65;;
11988;SDS011;6054;50.966;7.094;2022-09-25T02:54:15;25.63;;;18.25;;
11988;SDS011;6054;50.966;7.094;2022-09-25T02:56:47;21.65;;;18.85;;
11988;SDS011;6054;50.966;7.094;2022-09-25T02:59:22;24.02;;;18.50;;
11988;SDS011;6054;50.966;7.094;2022-09-25T03:01:55;22.52;;;18.52;;
11988;SDS011;6054;50.966;7.094;2022-09-25T03:04:23;22.85;;;18.63;;
11988;SDS011;6054;50.966;7.094;2022-09-25T03:06:53;21.63;;;18.33;;
11988;SDS011;6054;50.966;7.094;2022-09-25T03:09:22;22.17;;;17.42;;
11988;SDS011;6054;50.966;7.094;2022-09-25T03:11:49;22.70;;;17.75;;
11988;SDS011;6054;50.966;7.094;2022-09-25T03:14:16;25.40;;;19.20;;
11988;SDS011;6054;50.966;7.094;2022-09-25T03:16:44;22.35;;;18.65;;
11988;SDS011;6054;50.966;7.094;2022-09-25T03:19:15;27.30;;;19.70;;
11988;SDS011;6054;50.966;7.094;2022-09-25T03:21:43;24.95;;;19.08;;
11988;SDS011;6054;50.966;7.094;2022-09-25T03:24:11;24.50;;;18.23;;
11988;SDS011;6054;50.966;7.094;2022-09-25T03:26:38;25.38;;;19.45;;
11988;SDS011;6054;50.966;7.094;2022-09-25T03:29:05;21.48;;;16.85;;
11988;SDS011;6054;50.966;7.094;2022-09-25T03:31:33;20.92;;;15.13;;
11988;SDS011;6054;50.966;7.094;2022-09-25T03:34:00;19.35;;;13.88;;
11988;SDS011;6054;50.966;7.094;2022-09-25T03:36:28;21.27;;;14.32;;
11988;SDS011;6054;50.966;7.094;2022-09-25T03:38:56;22.17;;;15.50;;
11988;SDS011;6054;50.966;7.094;2022-09-25T03:41:24;19.63;;;14.75;;
11988;SDS011;6054;50.966;7.094;2022-09-25T03:43:54;19.00;;;14.25;;
11988;SDS011;6054;50.966;7.094;2022-09-25T03:46:22;17.48;;;13.52;;
11988;SDS011;6054;50.966;7.094;2022-09-25T03:48:50;18.02;;;14.05;;
11988;SDS011;6054;50.966;7.094;2022-09-25T03:51:17;22.58;;;13.80;;
11988;SDS011;6054;50.966;7.094;2022-09-25T03:53:46;17.58;;;13.38;;
11988;SDS011;6054;50.966;7.094;2022-09-25T03:56:14;20.85;;;13.88;;
11988;SDS011;6054;50.966;7.094;2022-09-25T03:58:42;14.98;;;12.25;;
11988;SDS011;6054;50.966;7.094;2022-09-25T04:01:09;16.17;;;11.43;;
11988;SDS011;6054;50.966;7.094;2022-09-25T04:03:36;12.75;;;10.57;;
11988;SDS011;6054;50.966;7.094;2022-09-25T04:06:05;13.73;;;10.90;;
11988;SDS011;6054;50.966;7.094;2022-09-25T04:08:33;16.70;;;11.52;;
11988;SDS011;6054;50.966;7.094;2022-09-25T04:11:03;17.05;;;12.07;;
11988;SDS011;6054;50.966;7.094;2022-09-25T04:13:31;15.20;;;11.57;;
11988;SDS011;6054;50.966;7.094;2022-09-25T04:16:00;13.60;;;11.18;;
11988;SDS011;6054;50.966;7.094;2022-09-25T04:18:28;16.60;;;10.70;;
11988;SDS011;6054;50.966;7.094;2022-09-25T04:20:56;14.23;;;11.45;;
11988;SDS011;6054;50.966;7.094;2022-09-25T04:23:23;14.93;;;11.18;;
11988;SDS011;6054;50.966;7.094;2022-09-25T04:25:49;16.00;;;10.43;;
11988;SDS011;6054;50.966;7.094;2022-09-25T04:28:18;11.80;;;9.82;;
11988;SDS011;6054;50.966;7.094;2022-09-25T04:30:46;13.90;;;9.95;;
11988;SDS011;6054;50.966;7.094;2022-09-25T04:33:13;15.73;;;8.23;;
11988;SDS011;6054;50.966;7.094;2022-09-25T04:35:58;9.20;;;7.07;;
11988;SDS011;6054;50.966;7.094;2022-09-25T04:38:25;8.85;;;6.88;;
11988;SDS011;6054;50.966;7.094;2022-09-25T04:40:52;8.90;;;5.68;;
11988;SDS011;6054;50.966;7.094;2022-09-25T04:43:20;11.30;;;6.22;;
11988;SDS011;6054;50.966;7.094;2022-09-25T04:45:46;8.80;;;6.13;;
11988;SDS011;6054;50.966;7.094;2022-09-25T04:48:14;9.80;;;6.60;;
11988;SDS011;6054;50.966;7.094;2022-09-25T04:50:45;9.40;;;5.22;;
11988;SDS011;6054;50.966;7.094;2022-09-25T04:53:13;9.38;;;5.38;;
11988;SDS011;6054;50.966;7.094;2022-09-25T04:55:40;8.55;;;5.50;;
11988;SDS011;6054;50.966;7.094;2022-09-25T04:58:07;7.60;;;4.78;;
11988;SDS011;6054;50.966;7.094;2022-09-25T05:00:36;9.60;;;5.47;;
11988;SDS011;6054;50.966;7.094;2022-09-25T05:03:05;6.88;;;5.00;;
11988;SDS011;6054;50.966;7.094;2022-09-25T05:05:32;9.73;;;4.85;;
11988;SDS011;6054;50.966;7.094;2022-09-25T05:07:59;9.10;;;5.00;;
11988;SDS011;6054;50.966;7.094;2022-09-25T05:10:28;10.93;;;4.25;;
11988;SDS011;6054;50.966;7.094;2022-09-25T05:12:56;8.48;;;3.55;;
11988;SDS011;6054;50.966;7.094;2022-09-25T05:15:24;10.65;;;3.83;;
11988;SDS011;6054;50.966;7.094;2022-09-25T05:17:59;7.90;;;3.33;;
11988;SDS011;6054;50.966;7.094;2022-09-25T05:20:25;5.82;;;3.45;;
11988;SDS011;6054;50.966;7.094;2022-09-25T05:22:53;11.95;;;4.18;;
11988;SDS011;6054;50.966;7.094;2022-09-25T05:25:20;7.30;;;3.50;;
11988;SDS011;6054;50.966;7.094;2022-09-25T05:27:49;7.03;;;3.65;;
11988;SDS011;6054;50.966;7.094;2022-09-25T05:30:16;6.13;;;3.58;;
11988;SDS011;6054;50.966;7.094;2022-09-25T05:32:45;16.45;;;4.10;;
11988;SDS011;6054;50.966;7.094;2022-09-25T05:35:15;7.55;;;3.38;;
11988;SDS011;6054;50.966;7.094;2022-09-25T05:37:42;11.55;;;4.20;;
11988;SDS011;6054;50.966;7.094;2022-09-25T05:40:09;7.50;;;3.72;;
11988;SDS011;6054;50.966;7.094;2022-09-25T05:42:36;11.63;;;4.22;;
11988;SDS011;6054;50.966;7.094;2022-09-25T05:45:03;11.15;;;4.18;;
11988;SDS011;6054;50.966;7.094;2022-09-25T05:47:31;10.68;;;3.50;;
11988;SDS011;6054;50.966;7.094;2022-09-25T05:49:57;11.80;;;3.45;;
11988;SDS011;6054;50.966;7.094;2022-09-25T05:52:25;5.70;;;2.80;;
11988;SDS011;6054;50.966;7.094;2022-09-25T05:54:52;8.95;;;3.25;;
11988;SDS011;6054;50.966;7.094;2022-09-25T05:57:19;8.20;;;2.72;;
11988;SDS011;6054;50.966;7.094;2022-09-25T05:59:46;5.88;;;2.58;;
11988;SDS011;6054;50.966;7.094;2022-09-25T06:02:13;6.82;;;3.13;;
11988;SDS011;6054;50.966;7.094;2022-09-25T06:04:41;8.43;;;2.50;;
11988;SDS011;6054;50.966;7.094;2022-09-25T06:07:07;7.18;;;2.88;;
11988;SDS011;6054;50.966;7.094;2022-09-25T06:09:36;9.18;;;2.40;;
11988;SDS011;6054;50.966;7.094;2022-09-25T06:12:03;6.65;;;2.45;;
11988;SDS011;6054;50.966;7.094;2022-09-25T06:14:30;7.85;;;2.88;;
11988;SDS011;6054;50.966;7.094;2022-09-25T06:16:58;7.15;;;2.00;;
11988;SDS011;6054;50.966;7.094;2022-09-25T06:19:25;9.43;;;2.15;;
11988;SDS011;6054;50.966;7.094;2022-09-25T06:21:53;7.95;;;2.63;;
11988;SDS011;6054;50.966;7.094;2022-09-25T06:24:21;7.25;;;2.03;;
11988;SDS011;6054;50.966;7.094;2022-09-25T06:26:49;5.93;;;2.22;;
11988;SDS011;6054;50.966;7.094;2022-09-25T06:29:16;12.57;;;2.45;;
11988;SDS011;6054;50.966;7.094;2022-09-25T06:31:43;12.40;;;2.50;;
11988;SDS011;6054;50.966;7.094;2022-09-25T06:34:10;7.97;;;1.83;;
11988;SDS011;6054;50.966;7.094;2022-09-25T06:36:37;7.88;;;2.40;;
11988;SDS011;6054;50.966;7.094;2022-09-25T06:39:04;7.65;;;1.95;;
11988;SDS011;6054;50.966;7.094;2022-09-25T06:41:30;10.73;;;2.30;;
11988;SDS011;6054;50.966;7.094;2022-09-25T06:43:58;8.50;;;1.73;;
11988;SDS011;6054;50.966;7.094;2022-09-25T06:46:25;6.93;;;2.00;;
11988;SDS011;6054;50.966;7.094;2022-09-25T06:48:52;6.80;;;2.05;;
11988;SDS011;6054;50.966;7.094;2022-09-25T06:51:20;12.45;;;2.03;;
11988;SDS011;6054;50.966;7.094;2022-09-25T06:53:47;7.80;;;1.77;;
11988;SDS011;6054;50.966;7.094;2022-09-25T06:56:18;5.38;;;1.80;;
11988;SDS011;6054;50.966;7.094;2022-09-25T06:58:45;5.00;;;1.70;;
11988;SDS011;6054;50.966;7.094;2022-09-25T07:01:13;8.88;;;2.05;;
11988;SDS011;6054;50.966;7.094;2022-09-25T07:03:40;8.93;;;1.90;;
11988;SDS011;6054;50.966;7.094;2022-09-25T07:06:09;6.70;;;1.98;;
11988;SDS011;6054;50.966;7.094;2022-09-25T07:08:38;12.13;;;2.10;;
11988;SDS011;6054;50.966;7.094;2022-09-25T07:11:05;8.60;;;1.90;;
11988;SDS011;6054;50.966;7.094;2022-09-25T07:13:33;5.82;;;1.88;;
11988;SDS011;6054;50.966;7.094;2022-09-25T07:16:01;8.05;;;2.05;;
11988;SDS011;6054;50.966;7.094;2022-09-25T07:18:30;5.65;;;1.92;;
11988;SDS011;6054;50.966;7.094;2022-09-25T07:20:58;6.72;;;1.58;;
11988;SDS011;6054;50.966;7.094;2022-09-25T07:23:27;6.20;;;1.77;;
11988;SDS011;6054;50.966;7.094;2022-09-25T07:25:55;10.55;;;2.85;;
11988;SDS011;6054;50.966;7.094;2022-09-25T07:28:22;7.60;;;1.75;;
11988;SDS011;6054;50.966;7.094;2022-09-25T07:30:49;7.43;;;2.78;;
11988;SDS011;6054;50.966;7.094;2022-09-25T07:33:16;10.40;;;2.20;;
11988;SDS011;6054;50.966;7.094;2022-09-25T07:35:45;8.60;;;2.13;;
11988;SDS011;6054;50.966;7.094;2022-09-25T07:38:12;11.05;;;1.90;;
11988;SDS011;6054;50.966;7.094;2022-09-25T07:40:38;11.38;;;2.40;;
11988;SDS011;6054;50.966;7.094;2022-09-25T07:43:05;5.70;;;1.83;;
11988;SDS011;6054;50.966;7.094;2022-09-25T07:45:32;10.20;;;2.03;;
11988;SDS011;6054;50.966;7.094;2022-09-25T08:16:30;6.70;;;1.58;;
11988;SDS011;6054;50.966;7.094;2022-09-25T08:18:57;8.48;;;1.67;;
11988;SDS011;6054;50.966;7.094;2022-09-25T08:21:24;6.38;;;1.73;;
11988;SDS011;6054;50.966;7.094;2022-09-25T08:23:51;8.25;;;1.98;;
11988;SDS011;6054;50.966;7.094;2022-09-25T08:26:20;8.93;;;2.00;;
11988;SDS011;6054;50.966;7.094;2022-09-25T08:28:48;5.78;;;1.50;;
11988;SDS011;6054;50.966;7.094;2022-09-25T08:31:16;7.68;;;1.65;;
11988;SDS011;6054;50.966;7.094;2022-09-25T08:33:44;7.28;;;1.83;;
11988;SDS011;6054;50.966;7.094;2022-09-25T08:36:11;6.18;;;1.85;;
11988;SDS011;6054;50.966;7.094;2022-09-25T08:38:38;10.50;;;1.60;;
11988;SDS011;6054;50.966;7.094;2022-09-25T08:41:06;6.57;;;1.50;;
11988;SDS011;6054;50.966;7.094;2022-09-25T08:43:39;5.45;;;1.60;;
11988;SDS011;6054;50.966;7.094;2022-09-25T08:46:11;8.40;;;1.75;;
11988;SDS011;6054;50.966;7.094;2022-09-25T08:49:02;5.90;;;1.98;;
11988;SDS011;6054;50.966;7.094;2022-09-25T08:51:31;6.60;;;1.65;;
11988;SDS011;6054;50.966;7.094;2022-09-25T08:54:03;8.30;;;1.30;;
11988;SDS011;6054;50.966;7.094;2022-09-25T08:56:31;8.00;;;1.80;;
11988;SDS011;6054;50.966;7.094;2022-09-25T08:59:00;7.22;;;1.33;;
11988;SDS011;6054;50.966;7.094;2022-09-25T09:01:36;7.32;;;1.42;;
11988;SDS011;6054;50.966;7.094;2022-09-25T09:04:11;7.57;;;1.83;;
11988;SDS011;6054;50.966;7.094;2022-09-25T09:06:44;6.25;;;1.48;;
11988;SDS011;6054;50.966;7.094;2022-09-25T09:09:14;7.28;;;1.95;;
11988;SDS011;6054;50.966;7.094;2022-09-25T09:11:46;5.88;;;1.27;;
11988;SDS011;6054;50.966;7.094;2022-09-25T09:14:17;4.25;;;1.40;;
11988;SDS011;6054;50.966;7.094;2022-09-25T09:16:47;6.38;;;1.10;;
11988;SDS011;6054;50.966;7.094;2022-09-25T09:19:21;5.72;;;1.30;;
11988;SDS011;6054;50.966;7.094;2022-09-25T09:21:51;5.18;;;1.30;;
11988;SDS011;6054;50.966;7.094;2022-09-25T09:24:26;4.70;;;1.20;;
11988;SDS011;6054;50.966;7.094;2022-09-25T09:27:13;5.75;;;1.33;;
11988;SDS011;6054;50.966;7.094;2022-09-25T09:29:53;7.03;;;1.70;;
11988;SDS011;6054;50.966;7.094;2022-09-25T09:32:31;11.50;;;1.75;;
11988;SDS011;6054;50.966;7.094;2022-09-25T09:35:16;10.57;;;1.40;;
11988;SDS011;6054;50.966;7.094;2022-09-25T09:37:53;4.60;;;1.30;;
11988;SDS011;6054;50.966;7.094;2022-09-25T09:40:38;5.53;;;1.13;;
11988;SDS011;6054;50.966;7.094;2022-09-25T09:43:18;7.80;;;1.88;;
11988;SDS011;6054;50.966;7.094;2022-09-25T09:45:56;6.60;;;1.25;;
11988;SDS011;6054;50.966;7.094;2022-09-25T09:48:28;5.63;;;1.23;;
11988;SDS011;6054;50.966;7.094;2022-09-25T09:51:01;4.03;;;1.10;;
11988;SDS011;6054;50.966;7.094;2022-09-25T09:53:33;4.63;;;1.52;;
11988;SDS011;6054;50.966;7.094;2022-09-25T09:56:05;4.10;;;1.08;;
11988;SDS011;6054;50.966;7.094;2022-09-25T09:58:42;7.38;;;1.42;;
11988;SDS011;6054;50.966;7.094;2022-09-25T10:01:12;5.13;;;1.10;;
11988;SDS011;6054;50.966;7.094;2022-09-25T10:03:41;3.85;;;1.00;;
11988;SDS011;6054;50.966;7.094;2022-09-25T10:06:12;4.25;;;1.45;;
11988;SDS011;6054;50.966;7.094;2022-09-25T10:08:42;6.10;;;1.48;;
11988;SDS011;6054;50.966;7.094;2022-09-25T10:11:11;3.70;;;1.30;;
11988;SDS011;6054;50.966;7.094;2022-09-25T10:13:40;2.50;;;0.88;;
11988;SDS011;6054;50.966;7.094;2022-09-25T10:16:09;4.13;;;0.90;;
11988;SDS011;6054;50.966;7.094;2022-09-25T10:18:39;1.65;;;0.77;;
11988;SDS011;6054;50.966;7.094;2022-09-25T10:21:13;2.85;;;1.13;;
11988;SDS011;6054;50.966;7.094;2022-09-25T10:23:48;8.73;;;1.55;;
11988;SDS011;6054;50.966;7.094;2022-09-25T10:26:24;2.97;;;1.10;;
11988;SDS011;6054;50.966;7.094;2022-09-25T10:28:55;6.97;;;1.63;;
11988;SDS011;6054;50.966;7.094;2022-09-25T10:31:28;4.38;;;1.27;;
11988;SDS011;6054;50.966;7.094;2022-09-25T10:34:03;5.60;;;1.33;;
11988;SDS011;6054;50.966;7.094;2022-09-25T10:36:38;3.47;;;1.05;;
11988;SDS011;6054;50.966;7.094;2022-09-25T10:39:23;5.20;;;1.45;;
11988;SDS011;6054;50.966;7.094;2022-09-25T10:41:55;2.33;;;0.77;;
11988;SDS011;6054;50.966;7.094;2022-09-25T10:44:27;4.97;;;1.15;;
11988;SDS011;6054;50.966;7.094;2022-09-25T10:55:24;2.42;;;1.13;;
11988;SDS011;6054;50.966;7.094;2022-09-25T10:57:55;2.17;;;0.82;;
11988;SDS011;6054;50.966;7.094;2022-09-25T11:00:37;3.65;;;1.02;;
11988;SDS011;6054;50.966;7.094;2022-09-25T11:03:12;4.15;;;0.68;;
11988;SDS011;6054;50.966;7.094;2022-09-25T11:05:46;1.35;;;0.77;;
11988;SDS011;6054;50.966;7.094;2022-09-25T11:08:19;3.70;;;0.90;;
11988;SDS011;6054;50.966;7.094;2022-09-25T11:10:50;3.35;;;0.98;;
11988;SDS011;6054;50.966;7.094;2022-09-25T11:13:22;5.57;;;1.27;;
11988;SDS011;6054;50.966;7.094;2022-09-25T11:16:01;4.25;;;1.30;;
11988;SDS011;6054;50.966;7.094;2022-09-25T11:18:35;2.53;;;1.20;;
11988;SDS011;6054;50.966;7.094;2022-09-25T11:21:05;2.30;;;1.00;;
11988;SDS011;6054;50.966;7.094;2022-09-25T11:23:44;4.72;;;1.23;;
11988;SDS011;6054;50.966;7.094;2022-09-25T11:26:26;3.60;;;1.05;;
11988;SDS011;6054;50.966;7.094;2022-09-25T11:28:59;8.02;;;1.00;;
11988;SDS011;6054;50.966;7.094;2022-09-25T11:31:35;4.22;;;1.00;;
11988;SDS011;6054;50.966;7.094;2022-09-25T11:34:08;2.80;;;0.80;;
11988;SDS011;6054;50.966;7.094;2022-09-25T11:36:43;3.80;;;0.85;;
11988;SDS011;6054;50.966;7.094;2022-09-25T11:39:14;3.53;;;1.05;;
11988;SDS011;6054;50.966;7.094;2022-09-25T11:42:06;4.25;;;0.73;;
11988;SDS011;6054;50.966;7.094;2022-09-25T11:44:41;5.03;;;1.40;;
11988;SDS011;6054;50.966;7.094;2022-09-25T11:47:19;3.90;;;0.80;;
11988;SDS011;6054;50.966;7.094;2022-09-25T11:49:51;4.93;;;1.20;;
11988;SDS011;6054;50.966;7.094;2022-09-25T11:52:29;4.18;;;1.10;;
11988;SDS011;6054;50.966;7.094;2022-09-25T11:58:12;2.83;;;0.90;;
11988;SDS011;6054;50.966;7.094;2022-09-25T12:01:10;4.95;;;2.05;;
11988;SDS011;6054;50.966;7.094;2022-09-25T12:03:51;2.97;;;0.80;;
11988;SDS011;6054;50.966;7.094;2022-09-25T12:06:41;3.65;;;1.20;;
11988;SDS011;6054;50.966;7.094;2022-09-25T12:12:53;4.88;;;1.38;;
11988;SDS011;6054;50.966;7.094;2022-09-25T12:15:31;3.17;;;1.40;;
11988;SDS011;6054;50.966;7.094;2022-09-25T12:18:12;3.97;;;1.00;;
11988;SDS011;6054;50.966;7.094;2022-09-25T12:20:50;6.13;;;1.20;;
11988;SDS011;6054;50.966;7.094;2022-09-25T12:23:23;3.13;;;0.90;;
11988;SDS011;6054;50.966;7.094;2022-09-25T12:26:02;2.78;;;0.60;;
11988;SDS011;6054;50.966;7.094;2022-09-25T12:28:43;3.17;;;0.88;;
11988;SDS011;6054;50.966;7.094;2022-09-25T12:31:25;2.13;;;0.80;;
11988;SDS011;6054;50.966;7.094;2022-09-25T12:33:58;3.20;;;0.93;;
11988;SDS011;6054;50.966;7.094;2022-09-25T12:36:32;3.83;;;1.17;;
11988;SDS011;6054;50.966;7.094;2022-09-25T12:39:19;3.83;;;0.88;;
11988;SDS011;6054;50.966;7.094;2022-09-25T12:41:53;4.07;;;0.85;;
11988;SDS011;6054;50.966;7.094;2022-09-25T12:44:31;3.63;;;0.80;;
11988;SDS011;6054;50.966;7.094;2022-09-25T12:47:08;3.15;;;1.00;;
11988;SDS011;6054;50.966;7.094;2022-09-25T12:49:43;5.70;;;0.90;;
11988;SDS011;6054;50.966;7.094;2022-09-25T12:52:16;2.65;;;0.95;;
11988;SDS011;6054;50.966;7.094;2022-09-25T12:54:49;2.55;;;0.80;;
11988;SDS011;6054;50.966;7.094;2022-09-25T12:57:20;0.98;;;0.60;;
11988;SDS011;6054;50.966;7.094;2022-09-25T12:59:54;5.28;;;0.95;;
11988;SDS011;6054;50.966;7.094;2022-09-25T13:02:26;3.30;;;0.98;;
11988;SDS011;6054;50.966;7.094;2022-09-25T13:05:02;3.47;;;1.20;;
11988;SDS011;6054;50.966;7.094;2022-09-25T13:07:40;1.58;;;0.88;;
11988;SDS011;6054;50.966;7.094;2022-09-25T13:10:17;1.65;;;0.70;;
11988;SDS011;6054;50.966;7.094;2022-09-25T13:12:48;3.60;;;0.88;;
11988;SDS011;6054;50.966;7.094;2022-09-25T13:15:22;2.00;;;0.88;;
11988;SDS011;6054;50.966;7.094;2022-09-25T13:18:13;1.55;;;0.90;;
11988;SDS011;6054;50.966;7.094;2022-09-25T13:20:46;2.72;;;0.82;;
11988;SDS011;6054;50.966;7.094;2022-09-25T13:23:15;2.65;;;1.10;;
11988;SDS011;6054;50.966;7.094;2022-09-25T13:25:52;3.17;;;0.90;;
11988;SDS011;6054;50.966;7.094;2022-09-25T13:28:25;1.48;;;0.77;;
11988;SDS011;6054;50.966;7.094;2022-09-25T13:31:00;3.45;;;0.70;;
11988;SDS011;6054;50.966;7.094;2022-09-25T13:33:33;4.85;;;1.02;;
11988;SDS011;6054;50.966;7.094;2022-09-25T13:36:07;4.05;;;1.17;;
11988;SDS011;6054;50.966;7.094;2022-09-25T13:38:39;1.52;;;0.60;;
11988;SDS011;6054;50.966;7.094;2022-09-25T13:41:27;1.42;;;0.77;;
11988;SDS011;6054;50.966;7.094;2022-09-25T14:20:37;1.38;;;0.60;;
11988;SDS011;6054;50.966;7.094;2022-09-25T14:23:10;0.82;;;0.70;;
11988;SDS011;6054;50.966;7.094;2022-09-25T14:25:39;2.65;;;0.98;;
11988;SDS011;6054;50.966;7.094;2022-09-25T14:28:22;1.00;;;0.60;;
11988;SDS011;6054;50.966;7.094;2022-09-25T14:30:51;2.65;;;0.80;;
11988;SDS011;6054;50.966;7.094;2022-09-25T14:33:48;2.35;;;0.88;;
11988;SDS011;6054;50.966;7.094;2022-09-25T14:36:26;2.33;;;1.40;;
11988;SDS011;6054;50.966;7.094;2022-09-25T14:39:04;3.65;;;1.10;;
11988;SDS011;6054;50.966;7.094;2022-09-25T14:41:53;1.15;;;0.98;;
11988;SDS011;6054;50.966;7.094;2022-09-25T14:44:49;2.55;;;1.10;;
11988;SDS011;6054;50.966;7.094;2022-09-25T14:47:31;3.17;;;1.13;;
11988;SDS011;6054;50.966;7.094;2022-09-25T14:50:00;4.57;;;1.20;;
11988;SDS011;6054;50.966;7.094;2022-09-25T14:52:30;3.78;;;1.30;;
11988;SDS011;6054;50.966;7.094;2022-09-25T14:55:00;2.05;;;0.90;;
11988;SDS011;6054;50.966;7.094;2022-09-25T14:57:29;3.65;;;0.90;;
11988;SDS011;6054;50.966;7.094;2022-09-25T14:59:59;1.75;;;0.77;;
11988;SDS011;6054;50.966;7.094;2022-09-25T15:02:29;2.17;;;0.70;;
11988;SDS011;6054;50.966;7.094;2022-09-25T15:07:43;1.65;;;1.00;;
11988;SDS011;6054;50.966;7.094;2022-09-25T15:10:18;3.33;;;1.15;;
11988;SDS011;6054;50.966;7.094;2022-09-25T15:12:51;4.57;;;0.98;;
11988;SDS011;6054;50.966;7.094;2022-09-25T15:15:19;1.95;;;0.90;;
11988;SDS011;6054;50.966;7.094;2022-09-25T15:17:46;3.13;;;1.30;;
11988;SDS011;6054;50.966;7.094;2022-09-25T15:20:15;4.20;;;1.10;;
11988;SDS011;6054;50.966;7.094;2022-09-25T15:22:53;3.70;;;1.10;;
11988;SDS011;6054;50.966;7.094;2022-09-25T15:25:23;1.73;;;0.88;;
11988;SDS011;6054;50.966;7.094;2022-09-25T15:27:56;2.25;;;0.90;;
11988;SDS011;6054;50.966;7.094;2022-09-25T15:30:24;4.57;;;1.10;;
11988;SDS011;6054;50.966;7.094;2022-09-25T15:32:55;1.60;;;0.90;;
11988;SDS011;6054;50.966;7.094;2022-09-25T15:35:24;5.47;;;1.30;;
11988;SDS011;6054;50.966;7.094;2022-09-25T15:38:02;2.70;;;1.00;;
11988;SDS011;6054;50.966;7.094;2022-09-25T15:43:19;4.03;;;1.10;;
11988;SDS011;6054;50.966;7.094;2022-09-25T15:45:47;3.08;;;1.13;;
11988;SDS011;6054;50.966;7.094;2022-09-25T15:49:40;2.17;;;1.02;;
11988;SDS011;6054;50.966;7.094;2022-09-25T15:51:30;3.05;;;1.25;;
11988;SDS011;6054;50.966;7.094;2022-09-25T15:54:01;5.03;;;1.33;;
11988;SDS011;6054;50.966;7.094;2022-09-25T15:56:31;2.00;;;1.35;;
11988;SDS011;6054;50.966;7.094;2022-09-25T15:59:04;2.42;;;1.00;;
11988;SDS011;6054;50.966;7.094;2022-09-25T16:01:42;1.73;;;1.38;;
11988;SDS011;6054;50.966;7.094;2022-09-25T16:04:26;2.75;;;1.10;;
11988;SDS011;6054;50.966;7.094;2022-09-25T16:07:23;2.17;;;1.10;;
11988;SDS011;6054;50.966;7.094;2022-09-25T16:09:56;3.05;;;1.50;;
11988;SDS011;6054;50.966;7.094;2022-09-25T16:12:28;2.28;;;1.00;;
11988;SDS011;6054;50.966;7.094;2022-09-25T16:15:02;2.35;;;1.10;;
11988;SDS011;6054;50.966;7.094;2022-09-25T16:18:23;1.92;;;0.95;;
11988;SDS011;6054;50.966;7.094;2022-09-25T16:21:12;5.30;;;1.05;;
11988;SDS011;6054;50.966;7.094;2022-09-25T16:23:56;2.67;;;1.10;;
11988;SDS011;6054;50.966;7.094;2022-09-25T16:26:26;2.33;;;1.33;;
11988;SDS011;6054;50.966;7.094;2022-09-25T16:29:03;2.25;;;1.08;;
11988;SDS011;6054;50.966;7.094;2022-09-25T16:31:46;2.33;;;1.17;;
11988;SDS011;6054;50.966;7.094;2022-09-25T16:34:18;2.25;;;0.90;;
11988;SDS011;6054;50.966;7.094;2022-09-25T16:36:51;1.48;;;1.20;;
11988;SDS011;6054;50.966;7.094;2022-09-25T16:39:24;3.13;;;1.13;;
11988;SDS011;6054;50.966;7.094;2022-09-25T16:41:54;2.30;;;1.10;;
11988;SDS011;6054;50.966;7.094;2022-09-25T16:44:33;3.55;;;1.10;;
11988;SDS011;6054;50.966;7.094;2022-09-25T16:47:05;4.55;;;1.20;;
11988;SDS011;6054;50.966;7.094;2022-09-25T16:49:38;1.17;;;0.85;;